Time;durP1;ratioP1;P1;durP2;ratioP2;P2;SDS_P1;SDS_P2;PMS_P1;PMS_P2;Temp;Humidity;BMP_temperature;BMP_pressure;BME280_temperature;BME280_humidity;BME280_pressure;Samples;Min_cycle;Max_cycle;Signal;HPM_P1;HPM_P2
2024/02/23 00:00:27;;;;;;;;;;;9.80;99.90;;;;;;4964469;28;19914;-80
2024/02/23 00:02:58;;;;;;;;;;;9.90;99.90;;;;;;4974120;28;19918;-81
2024/02/23 00:05:25;;;;;;;;;;;9.80;99.90;;;;;;4943698;29;20406;-80
2024/02/23 00:07:52;;;;;;;;;;;9.80;99.90;;;;;;4931502;29;19918;-80
2024/02/23 00:10:18;;;;;;;;;;;9.70;99.90;;;;;;4923404;29;20010;-81
2024/02/23 00:12:44;;;;;;;;;;;9.70;99.90;;;;;;4948144;29;19915;-81
2024/02/23 00:15:10;;;;;;;;;;;9.70;99.90;;;;;;4953097;28;20005;-81
2024/02/23 00:17:39;;;;;;;;;;;9.70;99.90;;;;;;4938059;28;20478;-80
2024/02/23 00:20:05;;;;;;;;;;;9.70;99.90;;;;;;4957589;28;19932;-80
2024/02/23 00:22:33;;;;;;;;;;;9.70;99.90;;;;;;4942848;28;19953;-80
2024/02/23 00:24:59;;;;;;;;;;;9.70;99.90;;;;;;4954392;28;19921;-80
2024/02/23 00:27:26;;;;;;;;;;;9.60;99.90;;;;;;4970743;28;19965;-80
2024/02/23 00:29:55;;;;;;;;;;;9.60;99.90;;;;;;4969507;28;19918;-81
2024/02/23 00:32:21;;;;;;;;;;;9.60;99.90;;;;;;4958261;28;19918;-80
2024/02/23 00:34:54;;;;;;;;;;;9.60;99.90;;;;;;4973865;28;19941;-81
2024/02/23 00:37:42;;;;;;;;;;;9.60;99.90;;;;;;5012789;28;19926;-83
2024/02/23 00:40:09;;;;;;;;;;;9.50;99.90;;;;;;4974491;28;19914;-80
2024/02/23 00:42:35;;;;;;;;;;;9.50;99.90;;;;;;4975458;28;19904;-81
2024/02/23 00:45:01;;;;;;;;;;;9.50;99.90;;;;;;4974919;28;20001;-80
2024/02/23 00:47:27;;;;;;;;;;;9.50;99.90;;;;;;4973816;28;19968;-81
2024/02/23 00:49:54;;;;;;;;;;;9.50;99.90;;;;;;4979666;28;20005;-81
2024/02/23 00:52:22;;;;;;;;;;;9.50;99.90;;;;;;4960212;28;19926;-81
2024/02/23 00:54:48;;;;;;;;;;;9.40;99.90;;;;;;4971891;28;19925;-81
2024/02/23 00:57:15;;;;;;;;;;;9.40;99.90;;;;;;4954501;28;19914;-81
2024/02/23 00:59:53;;;;;;;;;;;9.50;99.90;;;;;;4975956;28;19925;-81
2024/02/23 01:02:21;;;;;;;;;;;9.50;99.90;;;;;;4987336;28;19926;-81
2024/02/23 01:04:50;;;;;;;;;;;9.40;99.90;;;;;;4977892;28;19914;-81
2024/02/23 01:07:16;;;;;;;;;;;9.50;99.90;;;;;;4992366;28;19913;-81
2024/02/23 01:09:44;;;;;;;;;;;9.40;99.90;;;;;;4977193;28;19918;-81
2024/02/23 01:12:35;;;;;;;;;;;9.40;99.90;;;;;;4953929;28;19949;-80
2024/02/23 01:15:00;;;;;;;;;;;9.40;99.90;;;;;;4956090;28;19914;-80
2024/02/23 01:17:26;;;;;;;;;;;9.50;99.90;;;;;;4973414;28;19924;-80
2024/02/23 01:19:55;;;;;;;;;;;9.40;99.90;;;;;;4967702;28;19918;-81
2024/02/23 01:22:29;;;;;;;;;;;9.30;99.90;;;;;;4992015;28;19924;-80
2024/02/23 01:24:58;;;;;;;;;;;9.30;99.90;;;;;;4985450;28;19927;-81
2024/02/23 01:27:24;;;;;;;;;;;9.30;99.90;;;;;;4986616;28;19914;-80
2024/02/23 01:29:50;;;;;;;;;;;9.30;99.90;;;;;;4962371;28;20364;-80
2024/02/23 01:32:16;;;;;;;;;;;9.30;99.90;;;;;;4984752;28;19917;-80
2024/02/23 01:34:53;;;;;;;;;;;9.30;99.90;;;;;;5009782;28;19945;-81
2024/02/23 01:37:19;;;;;;;;;;;9.30;99.90;;;;;;4974037;28;20282;-81
2024/02/23 01:39:51;;;;;;;;;;;9.20;99.90;;;;;;4969588;28;19909;-80
2024/02/23 01:42:26;;;;;;;;;;;9.20;99.90;;;;;;5004901;28;19992;-81
2024/02/23 01:44:56;;;;;;;;;;;9.20;99.90;;;;;;4990424;28;19918;-80
2024/02/23 01:47:25;;;;;;;;;;;9.20;99.90;;;;;;4951830;28;19918;-82
2024/02/23 01:50:13;;;;;;;;;;;9.20;99.90;;;;;;4982701;28;19951;-80
2024/02/23 01:52:41;;;;;;;;;;;9.20;99.90;;;;;;4970484;28;19969;-80
2024/02/23 01:55:09;;;;;;;;;;;9.20;99.90;;;;;;4954499;28;19937;-81
2024/02/23 01:58:02;;;;;;;;;;;9.20;99.90;;;;;;4955022;28;19914;-80
2024/02/23 02:00:50;;;;;;;;;;;9.10;99.90;;;;;;4987089;28;19925;-80
2024/02/23 02:03:15;;;;;;;;;;;9.10;99.90;;;;;;4952181;28;19918;-81
2024/02/23 02:05:41;;;;;;;;;;;9.10;99.90;;;;;;4957635;28;19921;-79
2024/02/23 02:08:11;;;;;;;;;;;9.10;99.90;;;;;;4985363;28;19925;-81
2024/02/23 02:10:44;;;;;;;;;;;9.00;99.90;;;;;;4988678;28;20317;-81
2024/02/23 02:13:10;;;;;;;;;;;8.90;99.90;;;;;;4968524;28;19970;-80
2024/02/23 02:15:35;;;;;;;;;;;8.80;99.90;;;;;;4973033;28;20551;-81
2024/02/23 02:18:09;;;;;;;;;;;8.70;99.90;;;;;;4989984;28;19960;-81
2024/02/23 02:20:37;;;;;;;;;;;8.60;99.90;;;;;;5004677;28;19981;-80
2024/02/23 02:23:03;;;;;;;;;;;8.50;99.90;;;;;;4971835;28;19949;-81
2024/02/23 02:25:32;;;;;;;;;;;8.40;99.90;;;;;;4964560;28;19905;-81
2024/02/23 02:27:59;;;;;;;;;;;8.40;99.90;;;;;;4964377;28;19914;-80
2024/02/23 02:30:29;;;;;;;;;;;8.30;99.90;;;;;;4971418;28;19941;-80
2024/02/23 02:33:02;;;;;;;;;;;8.20;99.90;;;;;;4953890;28;19945;-81
2024/02/23 02:35:33;;;;;;;;;;;8.20;99.90;;;;;;4956610;28;19971;-80
2024/02/23 02:38:00;;;;;;;;;;;8.00;99.90;;;;;;4973092;28;20929;-81
2024/02/23 02:40:28;;;;;;;;;;;7.90;99.90;;;;;;4989686;28;19924;-80
2024/02/23 02:42:53;;;;;;;;;;;7.70;99.90;;;;;;4954066;28;19973;-80
2024/02/23 02:45:30;;;;;;;;;;;7.70;99.90;;;;;;4951965;28;19914;-80
2024/02/23 02:47:56;;;;;;;;;;;7.70;99.90;;;;;;4968812;28;19915;-81
2024/02/23 02:50:22;;;;;;;;;;;7.50;99.90;;;;;;4968781;28;20230;-81
2024/02/23 02:52:58;;;;;;;;;;;7.50;99.90;;;;;;4945572;28;19953;-81
2024/02/23 02:56:04;;;;;;;;;;;7.40;99.90;;;;;;4985769;28;19949;-80
2024/02/23 02:58:30;;;;;;;;;;;7.30;99.90;;;;;;4983487;28;19968;-80
2024/02/23 03:00:57;;;;;;;;;;;7.30;99.90;;;;;;4943161;28;19945;-81
2024/02/23 03:03:26;;;;;;;;;;;7.30;99.90;;;;;;4983451;28;19914;-80
2024/02/23 03:06:03;;;;;;;;;;;7.30;99.90;;;;;;4955250;28;19941;-80
2024/02/23 03:08:30;;;;;;;;;;;7.20;99.90;;;;;;4987598;28;19921;-80
2024/02/23 03:10:57;;;;;;;;;;;7.20;99.90;;;;;;4948750;28;19929;-80
2024/02/23 03:13:31;;;;;;;;;;;7.20;99.90;;;;;;4977669;28;19914;-81
2024/02/23 03:16:20;;;;;;;;;;;7.20;99.90;;;;;;4983069;28;19928;-81
2024/02/23 03:18:54;;;;;;;;;;;7.20;99.90;;;;;;4973227;28;19926;-81
2024/02/23 03:21:40;;;;;;;;;;;7.20;99.90;;;;;;4952303;28;19964;-81
2024/02/23 03:24:10;;;;;;;;;;;7.20;99.90;;;;;;4968345;28;20345;-81
2024/02/23 03:26:38;;;;;;;;;;;7.10;99.90;;;;;;4969441;28;19915;-81
2024/02/23 03:29:21;;;;;;;;;;;;;;;;;;;;;
2024/02/23 03:31:57;;;;;;;;;;;7.20;99.90;;;;;;4969517;28;20508;-81
2024/02/23 03:34:23;;;;;;;;;;;7.10;99.90;;;;;;4956156;28;19941;-81
2024/02/23 03:36:49;;;;;;;;;;;7.10;99.90;;;;;;4978772;28;19918;-81
2024/02/23 03:39:20;;;;;;;;;;;7.10;99.90;;;;;;4949982;28;19914;-81
2024/02/23 03:41:47;;;;;;;;;;;7.20;99.90;;;;;;5005490;28;20057;-81
2024/02/23 03:44:15;;;;;;;;;;;7.00;99.90;;;;;;4955012;28;19966;-81
2024/02/23 03:46:43;;;;;;;;;;;7.10;99.90;;;;;;4948547;28;19914;-81
2024/02/23 03:49:12;;;;;;;;;;;7.10;99.90;;;;;;4941098;28;19964;-81
2024/02/23 03:51:39;;;;;;;;;;;7.00;99.90;;;;;;4946506;28;19949;-81
2024/02/23 03:54:47;;;;;;;;;;;7.00;99.90;;;;;;4975029;28;19914;-81
2024/02/23 03:57:18;;;;;;;;;;;7.00;99.90;;;;;;4994335;28;19918;-80
2024/02/23 04:00:16;;;;;;;;;;;7.00;99.90;;;;;;4977813;28;19914;-80
2024/02/23 04:03:08;;;;;;;;;;;7.00;99.90;;;;;;4945221;28;20405;-80
2024/02/23 04:05:54;;;;;;;;;;;6.90;99.90;;;;;;4981113;28;19949;-80
2024/02/23 04:08:21;;;;;;;;;;;6.90;99.90;;;;;;4966554;28;19924;-80
2024/02/23 04:10:47;;;;;;;;;;;6.80;99.90;;;;;;4956466;28;19917;-81
2024/02/23 04:13:13;;;;;;;;;;;6.80;99.90;;;;;;4958511;28;19914;-80
2024/02/23 04:15:39;;;;;;;;;;;6.80;99.90;;;;;;4951828;28;19913;-81
2024/02/23 04:18:12;;;;;;;;;;;6.80;99.90;;;;;;4975568;28;19914;-80
2024/02/23 04:20:50;;;;;;;;;;;6.70;99.90;;;;;;4994463;28;19992;-79
2024/02/23 04:23:39;;;;;;;;;;;6.80;99.90;;;;;;5008589;28;19920;-81
2024/02/23 04:26:07;;;;;;;;;;;6.80;99.90;;;;;;4977338;28;19982;-79
2024/02/23 04:29:11;;;;;;;;;;;6.70;99.90;;;;;;4959197;28;19930;-80
2024/02/23 04:31:37;;;;;;;;;;;6.80;99.90;;;;;;4960261;28;19914;-80
2024/02/23 04:34:43;;;;;;;;;;;6.90;99.90;;;;;;4989761;28;19957;-80
2024/02/23 04:37:09;;;;;;;;;;;6.70;99.90;;;;;;4980954;28;19914;-80
2024/02/23 04:39:35;;;;;;;;;;;6.70;99.90;;;;;;4959168;28;19944;-81
2024/02/23 04:42:11;;;;;;;;;;;6.80;99.90;;;;;;4960702;28;19917;-81
2024/02/23 04:44:49;;;;;;;;;;;6.70;99.90;;;;;;4974026;28;19922;-81
2024/02/23 04:47:19;;;;;;;;;;;6.70;99.90;;;;;;4989969;28;19901;-80
2024/02/23 04:50:04;;;;;;;;;;;6.70;99.90;;;;;;4986605;28;20000;-80
2024/02/23 04:52:42;;;;;;;;;;;6.70;99.90;;;;;;4956282;28;19898;-80
2024/02/23 04:55:25;;;;;;;;;;;6.70;99.90;;;;;;4963771;28;20383;-80
2024/02/23 04:57:57;;;;;;;;;;;6.70;99.90;;;;;;4995896;28;19982;-81
2024/02/23 05:00:32;;;;;;;;;;;6.80;99.90;;;;;;4981143;28;19914;-80
2024/02/23 05:03:07;;;;;;;;;;;6.80;99.90;;;;;;4996614;28;19924;-80
2024/02/23 05:05:43;;;;;;;;;;;6.80;99.90;;;;;;4984808;28;19929;-81
2024/02/23 05:08:21;;;;;;;;;;;6.90;99.90;;;;;;4996716;28;19945;-80
2024/02/23 05:11:23;;;;;;;;;;;6.80;99.90;;;;;;4989032;28;19920;-81
2024/02/23 05:14:04;;;;;;;;;;;6.70;99.90;;;;;;4995616;28;19976;-81
2024/02/23 05:16:37;;;;;;;;;;;6.70;99.90;;;;;;4975662;28;19996;-80
2024/02/23 05:19:03;;;;;;;;;;;6.70;99.90;;;;;;4991257;28;19994;-81
2024/02/23 05:21:33;;;;;;;;;;;6.70;99.90;;;;;;4960195;28;20474;-81
2024/02/23 05:23:59;;;;;;;;;;;6.70;99.90;;;;;;4968076;28;19904;-81
2024/02/23 05:26:28;;;;;;;;;;;6.70;99.90;;;;;;4977602;28;19949;-80
2024/02/23 05:29:07;;;;;;;;;;;6.80;99.90;;;;;;4978518;28;20718;-81
2024/02/23 05:32:05;;;;;;;;;;;6.70;99.90;;;;;;4997517;28;19914;-81
2024/02/23 05:35:10;;;;;;;;;;;6.80;99.90;;;;;;4889175;29;19919;-81
2024/02/23 05:37:55;;;;;;;;;;;6.70;99.90;;;;;;4936895;28;19913;-81
2024/02/23 05:40:23;;;;;;;;;;;6.80;99.90;;;;;;4985839;28;19910;-81
2024/02/23 05:43:45;;;;;;;;;;;6.80;99.90;;;;;;4927926;28;19927;-80
2024/02/23 05:46:29;;;;;;;;;;;6.80;99.90;;;;;;4938462;29;20417;-80
2024/02/23 05:52:15;;;;;;;;;;;6.80;99.90;;;;;;4953770;29;19922;-81
2024/02/23 05:54:45;;;;;;;;;;;6.70;99.90;;;;;;4919395;29;19998;-80
2024/02/23 05:57:47;;;;;;;;;;;6.70;99.90;;;;;;4894920;29;19915;-82
2024/02/23 06:00:07;;;;;;;;;;;6.70;99.90;;;;;;4934770;29;19918;-81
2024/02/23 06:03:03;;;;;;;;;;;6.70;99.90;;;;;;4911394;29;19950;-81
2024/02/23 06:05:44;;;;;;;;;;;6.70;99.90;;;;;;4937337;29;19919;-81
2024/02/23 06:08:42;;;;;;;;;;;6.80;99.90;;;;;;4924208;29;19933;-81
2024/02/23 06:11:09;;;;;;;;;;;6.70;99.90;;;;;;4931648;29;19919;-82
2024/02/23 06:19:25;;;;;;;;;;;6.70;99.90;;;;;;5021917;28;20297;-79
2024/02/23 06:21:51;;;;;;;;;;;6.60;99.90;;;;;;5004723;28;19901;-82
2024/02/23 06:28:06;;;;;;;;;;;6.60;99.90;;;;;;5034141;28;19917;-80
2024/02/23 06:31:00;;;;;;;;;;;6.60;99.90;;;;;;4999840;28;19932;-81
2024/02/23 06:33:31;;;;;;;;;;;6.60;99.90;;;;;;4986690;28;19921;-80
2024/02/23 06:35:56;;;;;;;;;;;6.60;99.90;;;;;;4987215;28;19913;-82
2024/02/23 06:38:28;;;;;;;;;;;6.70;99.90;;;;;;4966453;28;20238;-80
2024/02/23 06:41:08;;;;;;;;;;;6.70;99.90;;;;;;4990290;28;19925;-81
2024/02/23 06:44:07;;;;;;;;;;;;;;;;;;;;;
2024/02/23 06:46:48;;;;;;;;;;;;;;;;;;;;;
2024/02/23 06:49:58;;;;;;;;;;;6.70;99.90;;;;;;5003532;28;19952;-80
2024/02/23 06:52:30;;;;;;;;;;;6.70;99.90;;;;;;5017908;28;19936;-79
2024/02/23 06:55:01;;;;;;;;;;;6.80;99.90;;;;;;4976617;28;19914;-80
2024/02/23 06:57:45;;;;;;;;;;;6.80;99.90;;;;;;5028291;28;19977;-81
2024/02/23 07:04:11;;;;;;;;;;;6.80;99.90;;;;;;5030297;28;19914;-80
2024/02/23 07:10:01;;;;;;;;;;;6.70;99.90;;;;;;5003856;28;20357;-82
2024/02/23 07:12:28;;;;;;;;;;;6.70;99.90;;;;;;5012829;28;20071;-80
2024/02/23 07:15:08;;;;;;;;;;;6.70;99.90;;;;;;5002704;28;19921;-81
2024/02/23 07:17:34;;;;;;;;;;;6.80;99.90;;;;;;4983706;28;20320;-78
2024/02/23 07:20:05;;;;;;;;;;;6.80;99.90;;;;;;5006963;28;19933;-82
2024/02/23 07:22:31;;;;;;;;;;;6.80;99.90;;;;;;5027898;28;19948;-81
2024/02/23 07:25:03;;;;;;;;;;;6.80;99.90;;;;;;5040160;28;19901;-83
2024/02/23 07:27:58;;;;;;;;;;;6.80;99.90;;;;;;5016009;28;19901;-82
2024/02/23 07:37:43;;;;;;;;;;;6.80;99.90;;;;;;5040829;28;20038;-81
2024/02/23 07:40:12;;;;;;;;;;;6.90;99.90;;;;;;4985659;28;19924;-80
2024/02/23 07:42:49;;;;;;;;;;;6.90;99.90;;;;;;5024303;28;19928;-80
2024/02/23 07:45:57;;;;;;;;;;;6.70;99.90;;;;;;5024992;28;19917;-82
2024/02/23 07:52:02;;;;;;;;;;;6.90;99.90;;;;;;5834661;23;19982;-84
2024/02/23 07:54:30;;;;;;;;;;;6.80;99.90;;;;;;4988873;28;19917;-82
2024/02/23 07:56:59;;;;;;;;;;;6.90;99.90;;;;;;4986105;28;19926;-80
2024/02/23 07:59:48;;;;;;;;;;;6.90;99.90;;;;;;5017545;28;19925;-80
2024/02/23 08:02:39;;;;;;;;;;;;;;;;;;;;;
2024/02/23 08:05:10;;;;;;;;;;;6.90;99.90;;;;;;4967446;28;19902;-81
2024/02/23 08:08:22;;;;;;;;;;;;;;;;;;;;;
2024/02/23 08:14:46;;;;;;;;;;;6.90;99.90;;;;;;4961651;28;19909;-83
2024/02/23 08:17:14;;;;;;;;;;;6.90;99.90;;;;;;5117510;23;19960;-82
2024/02/23 08:19:40;;;;;;;;;;;7.00;99.90;;;;;;5022746;23;19910;-81
2024/02/23 08:24:52;;;;;;;;;;;7.10;99.90;;;;;;5277853;23;19931;-82
2024/02/23 08:27:19;;;;;;;;;;;7.20;99.90;;;;;;5006701;28;19902;-81
2024/02/23 08:29:45;;;;;;;;;;;7.20;99.90;;;;;;5039839;28;19952;-82
2024/02/23 08:32:13;;;;;;;;;;;7.10;99.90;;;;;;5004036;28;19989;-82
2024/02/23 08:34:43;;;;;;;;;;;7.20;99.90;;;;;;4987502;28;19902;-81
2024/02/23 08:37:48;;;;;;;;;;;7.30;99.90;;;;;;5086702;23;19932;-81
2024/02/23 08:40:15;;;;;;;;;;;7.30;99.90;;;;;;4981293;28;19918;-81
2024/02/23 08:42:42;;;;;;;;;;;7.30;99.90;;;;;;4977833;28;19948;-80
2024/02/23 08:45:09;;;;;;;;;;;7.30;99.90;;;;;;4957579;28;19929;-80
2024/02/23 08:47:35;;;;;;;;;;;7.30;99.90;;;;;;4963039;28;19939;-79
2024/02/23 08:50:04;;;;;;;;;;;7.30;99.90;;;;;;4944715;28;20327;-80
2024/02/23 08:52:32;;;;;;;;;;;7.30;99.90;;;;;;4935322;29;19919;-80
2024/02/23 08:55:00;;;;;;;;;;;7.40;99.90;;;;;;4932698;29;19950;-79
2024/02/23 08:57:46;;;;;;;;;;;7.40;99.90;;;;;;4930318;29;19921;-80
2024/02/23 09:00:15;;;;;;;;;;;7.40;99.90;;;;;;4950739;29;19938;-80
2024/02/23 09:02:46;;;;;;;;;;;7.50;99.90;;;;;;4954902;28;20257;-79
2024/02/23 09:05:12;;;;;;;;;;;7.50;99.90;;;;;;4947632;28;19914;-80
2024/02/23 09:07:37;;;;;;;;;;;7.60;99.90;;;;;;4957544;28;19969;-80
2024/02/23 09:10:04;;;;;;;;;;;7.70;99.90;;;;;;4964080;28;19997;-79
2024/02/23 09:12:35;;;;;;;;;;;7.70;99.90;;;;;;4963611;28;20282;-79
2024/02/23 09:15:02;;;;;;;;;;;7.80;99.90;;;;;;4979583;28;20336;-80
2024/02/23 09:17:28;;;;;;;;;;;7.80;99.90;;;;;;4946994;28;19925;-80
2024/02/23 09:19:54;;;;;;;;;;;7.80;99.90;;;;;;4952903;28;19922;-80
2024/02/23 09:22:19;;;;;;;;;;;7.80;99.90;;;;;;4932010;28;19920;-80
2024/02/23 09:24:45;;;;;;;;;;;7.80;99.90;;;;;;4931443;28;19965;-80
2024/02/23 09:27:11;;;;;;;;;;;7.90;99.90;;;;;;4932209;28;20305;-79
2024/02/23 09:29:37;;;;;;;;;;;7.80;99.90;;;;;;4930262;28;19918;-80
2024/02/23 09:32:02;;;;;;;;;;;7.90;99.90;;;;;;4929958;28;19984;-79
2024/02/23 09:34:29;;;;;;;;;;;7.90;99.90;;;;;;4945722;28;19921;-80
2024/02/23 09:36:55;;;;;;;;;;;7.90;99.90;;;;;;4936059;28;19926;-80
2024/02/23 09:39:21;;;;;;;;;;;8.00;99.90;;;;;;4977762;28;19929;-80
2024/02/23 09:41:49;;;;;;;;;;;8.00;99.90;;;;;;4945769;28;20331;-80
2024/02/23 09:44:15;;;;;;;;;;;7.90;99.90;;;;;;4967705;28;19918;-79
2024/02/23 09:46:41;;;;;;;;;;;7.90;99.90;;;;;;4934493;28;19918;-81
2024/02/23 09:49:07;;;;;;;;;;;7.90;99.90;;;;;;4962553;28;19922;-81
2024/02/23 09:51:38;;;;;;;;;;;8.00;99.90;;;;;;4962901;28;19918;-81
2024/02/23 09:54:12;;;;;;;;;;;8.00;99.90;;;;;;4961642;28;20583;-82
2024/02/23 09:56:38;;;;;;;;;;;8.10;99.90;;;;;;4947510;28;20353;-81
2024/02/23 09:59:06;;;;;;;;;;;8.20;99.90;;;;;;4953034;29;19982;-81
2024/02/23 10:01:32;;;;;;;;;;;8.30;99.90;;;;;;4953127;28;19968;-81
2024/02/23 10:03:59;;;;;;;;;;;8.40;99.90;;;;;;4968136;28;20582;-81
2024/02/23 10:06:25;;;;;;;;;;;8.40;99.90;;;;;;4970650;28;19928;-81
2024/02/23 10:08:52;;;;;;;;;;;8.40;99.90;;;;;;4978386;28;19918;-81
2024/02/23 10:11:18;;;;;;;;;;;8.40;99.90;;;;;;4968410;28;19984;-81
2024/02/23 10:13:43;;;;;;;;;;;8.50;99.90;;;;;;4949649;28;19925;-78
2024/02/23 10:16:10;;;;;;;;;;;8.40;99.90;;;;;;4964907;28;19918;-80
2024/02/23 10:18:37;;;;;;;;;;;8.50;99.90;;;;;;4950411;28;19978;-81
2024/02/23 10:21:23;;;;;;;;;;;8.60;99.90;;;;;;4958409;29;19919;-81
2024/02/23 10:23:52;;;;;;;;;;;8.60;99.90;;;;;;4966315;28;20712;-81
2024/02/23 10:26:22;;;;;;;;;;;8.70;99.90;;;;;;4947568;28;19929;-78
2024/02/23 10:29:05;;;;;;;;;;;;;;;;;;;;;
2024/02/23 10:31:58;;;;;;;;;;;8.80;99.90;;;;;;4978581;28;19972;-79
2024/02/23 10:34:25;;;;;;;;;;;8.80;99.90;;;;;;4956887;28;19949;-80
2024/02/23 10:37:09;;;;;;;;;;;9.00;99.90;;;;;;4958277;28;19938;-80
2024/02/23 10:39:37;;;;;;;;;;;9.10;99.90;;;;;;4910562;29;19973;-81
2024/02/23 10:42:06;;;;;;;;;;;9.20;99.90;;;;;;4926216;29;19929;-80
2024/02/23 10:44:32;;;;;;;;;;;9.20;99.90;;;;;;4930907;29;19915;-80
2024/02/23 10:47:08;;;;;;;;;;;9.40;99.90;;;;;;4941574;29;20005;-79
2024/02/23 10:49:35;;;;;;;;;;;9.50;99.90;;;;;;4918765;29;19922;-81
2024/02/23 10:52:03;;;;;;;;;;;9.70;99.90;;;;;;4916272;29;20039;-79
2024/02/23 10:54:32;;;;;;;;;;;9.70;99.90;;;;;;4893631;29;20347;-79
2024/02/23 10:57:02;;;;;;;;;;;9.70;99.90;;;;;;4922541;29;19958;-81
2024/02/23 10:59:28;;;;;;;;;;;9.80;99.90;;;;;;4912011;29;19919;-80
2024/02/23 11:01:57;;;;;;;;;;;10.00;99.50;;;;;;4914860;29;19923;-80
2024/02/23 11:04:35;;;;;;;;;;;;;;;;;;;;;
2024/02/23 11:07:04;;;;;;;;;;;10.20;99.40;;;;;;4949496;28;20644;-81
2024/02/23 11:09:31;;;;;;;;;;;10.80;98.50;;;;;;4936333;29;19978;-81
2024/02/23 11:11:57;;;;;;;;;;;11.10;98.30;;;;;;4925862;29;19918;-78
2024/02/23 11:14:35;;;;;;;;;;;11.10;98.10;;;;;;4941987;29;19914;-81
2024/02/23 11:17:01;;;;;;;;;;;11.50;97.70;;;;;;4918548;29;19957;-81
2024/02/23 11:19:35;;;;;;;;;;;11.90;96.10;;;;;;4937936;29;19938;-81
2024/02/23 11:22:02;;;;;;;;;;;12.40;95.90;;;;;;4923953;28;19914;-80
2024/02/23 11:24:28;;;;;;;;;;;12.10;95.60;;;;;;4960317;28;20353;-81
2024/02/23 11:26:58;;;;;;;;;;;11.60;96.70;;;;;;4939682;29;19925;-78
2024/02/23 11:29:25;;;;;;;;;;;11.80;96.50;;;;;;4936329;29;19976;-80
2024/02/23 11:31:55;;;;;;;;;;;11.20;96.70;;;;;;4904776;29;19919;-80
2024/02/23 11:34:27;;;;;;;;;;;10.80;98.20;;;;;;4922322;29;19918;-80
2024/02/23 11:36:53;;;;;;;;;;;10.50;98.00;;;;;;4943690;28;19997;-80
2024/02/23 11:39:19;;;;;;;;;;;10.30;97.50;;;;;;4947519;29;19915;-80
2024/02/23 11:41:45;;;;;;;;;;;10.10;98.30;;;;;;4924849;29;20596;-80
2024/02/23 11:44:13;;;;;;;;;;;10.20;98.30;;;;;;4925068;29;19926;-80
2024/02/23 11:46:39;;;;;;;;;;;10.60;98.00;;;;;;4942688;29;19914;-80
2024/02/23 11:49:05;;;;;;;;;;;11.00;97.70;;;;;;4959924;29;20247;-80
2024/02/23 11:51:31;;;;;;;;;;;11.00;96.50;;;;;;4937910;29;19915;-81
2024/02/23 11:53:58;;;;;;;;;;;11.00;97.00;;;;;;4968807;28;20009;-80
2024/02/23 11:56:25;;;;;;;;;;;10.70;96.30;;;;;;4945918;29;19960;-80
2024/02/23 11:58:50;;;;;;;;;;;10.50;96.50;;;;;;4920790;29;20526;-80
2024/02/23 12:01:16;;;;;;;;;;;10.40;97.00;;;;;;4950878;29;20438;-80
2024/02/23 12:03:43;;;;;;;;;;;10.50;96.60;;;;;;4912112;29;19914;-78
2024/02/23 12:06:10;;;;;;;;;;;10.30;96.80;;;;;;4949124;28;20219;-80
2024/02/23 12:08:38;;;;;;;;;;;10.10;97.50;;;;;;4937676;29;20335;-80
2024/02/23 12:11:07;;;;;;;;;;;9.90;97.50;;;;;;4925606;29;20346;-79
2024/02/23 12:13:33;;;;;;;;;;;9.80;98.00;;;;;;4925647;29;20549;-80
2024/02/23 12:15:59;;;;;;;;;;;9.80;98.30;;;;;;4943694;29;19914;-80
2024/02/23 12:18:31;;;;;;;;;;;10.10;97.70;;;;;;4933613;29;19919;-79
2024/02/23 12:21:09;;;;;;;;;;;10.00;97.10;;;;;;4945469;28;19939;-79
2024/02/23 12:23:42;;;;;;;;;;;10.10;97.40;;;;;;4958982;28;19918;-79
2024/02/23 12:26:07;;;;;;;;;;;10.20;98.00;;;;;;4941506;28;19922;-79
2024/02/23 12:28:33;;;;;;;;;;;10.50;97.20;;;;;;4946161;29;20668;-79
2024/02/23 12:31:08;;;;;;;;;;;10.40;96.10;;;;;;4957170;28;19973;-79
2024/02/23 12:33:34;;;;;;;;;;;10.40;96.30;;;;;;4907202;29;20240;-79
2024/02/23 12:36:05;;;;;;;;;;;10.30;96.90;;;;;;4961664;28;20382;-79
2024/02/23 12:38:36;;;;;;;;;;;10.40;97.40;;;;;;4980296;28;20231;-79
2024/02/23 12:41:04;;;;;;;;;;;10.70;97.00;;;;;;4966011;28;20291;-79
2024/02/23 12:43:35;;;;;;;;;;;10.60;97.60;;;;;;4929910;28;19914;-79
2024/02/23 12:46:03;;;;;;;;;;;10.40;97.30;;;;;;4962155;28;19925;-79
2024/02/23 12:48:28;;;;;;;;;;;10.30;97.00;;;;;;4962194;28;20004;-79
2024/02/23 12:51:06;;;;;;;;;;;10.20;96.80;;;;;;4945875;28;19915;-79
2024/02/23 12:56:30;;;;;;;;;;;10.00;96.70;;;;;;4943668;28;19918;-79
2024/02/23 12:59:04;;;;;;;;;;;9.90;97.10;;;;;;4961467;28;19915;-79
2024/02/23 13:01:34;;;;;;;;;;;9.80;97.10;;;;;;4959921;28;19950;-79
2024/02/23 13:04:19;;;;;;;;;;;9.70;97.30;;;;;;4960524;28;19989;-79
2024/02/23 13:06:44;;;;;;;;;;;9.70;97.70;;;;;;4946349;28;19929;-79
2024/02/23 13:09:12;;;;;;;;;;;9.70;97.70;;;;;;4969131;28;20247;-79
2024/02/23 13:11:45;;;;;;;;;;;9.70;98.30;;;;;;4957822;29;20009;-79
2024/02/23 13:14:15;;;;;;;;;;;9.70;97.70;;;;;;4957782;29;20342;-79
2024/02/23 13:16:44;;;;;;;;;;;9.90;97.90;;;;;;4979721;28;20263;-79
2024/02/23 13:19:15;;;;;;;;;;;10.00;98.00;;;;;;4937871;28;19977;-79
2024/02/23 13:21:41;;;;;;;;;;;10.90;98.00;;;;;;4944820;28;19918;-79
2024/02/23 13:24:07;;;;;;;;;;;11.10;96.50;;;;;;4954619;29;19914;-78
2024/02/23 13:26:32;;;;;;;;;;;10.90;96.60;;;;;;4947008;28;19914;-79
2024/02/23 13:28:58;;;;;;;;;;;10.70;96.50;;;;;;4955756;28;20168;-79
2024/02/23 13:31:24;;;;;;;;;;;10.40;96.20;;;;;;4960331;28;20101;-79
2024/02/23 13:33:53;;;;;;;;;;;10.30;96.90;;;;;;4976081;28;19940;-79
2024/02/23 13:36:21;;;;;;;;;;;10.20;97.00;;;;;;4975435;28;19944;-79
2024/02/23 13:38:47;;;;;;;;;;;10.10;97.50;;;;;;4960097;28;20251;-78
2024/02/23 13:41:13;;;;;;;;;;;10.00;97.10;;;;;;4970776;28;19917;-78
2024/02/23 13:43:42;;;;;;;;;;;9.90;97.30;;;;;;4980463;28;19919;-78
2024/02/23 13:46:07;;;;;;;;;;;9.70;97.80;;;;;;4959873;28;19918;-78
2024/02/23 13:48:33;;;;;;;;;;;9.80;97.60;;;;;;4976610;28;20004;-78
2024/02/23 13:51:03;;;;;;;;;;;9.70;97.20;;;;;;4959893;28;19964;-78
2024/02/23 13:53:32;;;;;;;;;;;9.70;97.80;;;;;;4930257;28;20013;-78
2024/02/23 13:55:58;;;;;;;;;;;9.60;97.40;;;;;;4963582;28;19918;-78
2024/02/23 13:58:25;;;;;;;;;;;9.60;97.70;;;;;;4979301;28;19922;-78
2024/02/23 14:00:53;;;;;;;;;;;9.50;97.50;;;;;;4955123;28;19914;-81
2024/02/23 14:03:35;;;;;;;;;;;9.50;97.90;;;;;;4950435;28;20379;-81
2024/02/23 14:06:04;;;;;;;;;;;9.40;97.20;;;;;;4950348;28;19984;-81
2024/02/23 14:08:42;;;;;;;;;;;9.30;97.20;;;;;;4949114;28;19925;-81
2024/02/23 14:11:15;;;;;;;;;;;9.30;97.60;;;;;;4938124;29;19915;-81
2024/02/23 14:13:41;;;;;;;;;;;9.30;97.40;;;;;;4982891;28;19914;-81
2024/02/23 14:16:10;;;;;;;;;;;9.20;97.60;;;;;;4951212;28;19985;-81
2024/02/23 14:18:42;;;;;;;;;;;9.30;98.10;;;;;;4957524;28;19915;-80
2024/02/23 14:21:18;;;;;;;;;;;9.30;98.20;;;;;;4943125;29;19925;-80
2024/02/23 14:23:50;;;;;;;;;;;9.20;98.30;;;;;;4942635;29;20474;-81
2024/02/23 14:26:27;;;;;;;;;;;9.30;98.30;;;;;;4961302;28;19946;-80
2024/02/23 14:28:52;;;;;;;;;;;9.20;98.00;;;;;;4947312;28;19989;-81
2024/02/23 14:31:18;;;;;;;;;;;9.30;98.00;;;;;;4938730;28;19921;-80
2024/02/23 14:33:50;;;;;;;;;;;9.30;97.70;;;;;;4972892;28;19957;-80
2024/02/23 14:36:17;;;;;;;;;;;9.30;98.00;;;;;;4957155;28;19977;-81
2024/02/23 14:38:42;;;;;;;;;;;9.40;97.90;;;;;;4957936;28;19918;-81
2024/02/23 14:41:17;;;;;;;;;;;9.30;97.90;;;;;;4962602;28;19918;-80
2024/02/23 14:44:05;;;;;;;;;;;9.30;98.00;;;;;;4942420;28;19921;-81
2024/02/23 14:46:35;;;;;;;;;;;9.30;98.20;;;;;;4961152;28;19926;-81
2024/02/23 14:49:07;;;;;;;;;;;9.30;97.90;;;;;;4944429;28;19907;-80
2024/02/23 14:51:35;;;;;;;;;;;9.30;98.00;;;;;;4979601;28;19941;-80
2024/02/23 14:54:03;;;;;;;;;;;9.20;97.50;;;;;;4955394;28;19921;-80
2024/02/23 14:56:29;;;;;;;;;;;9.20;97.70;;;;;;4969869;28;19914;-80
2024/02/23 14:58:56;;;;;;;;;;;9.20;97.90;;;;;;4956017;29;19997;-80
2024/02/23 15:01:30;;;;;;;;;;;9.20;97.70;;;;;;4947200;29;19926;-81
2024/02/23 15:03:59;;;;;;;;;;;9.20;97.80;;;;;;4978918;28;19918;-81
2024/02/23 15:06:27;;;;;;;;;;;9.30;97.50;;;;;;4936375;28;19918;-81
2024/02/23 15:09:07;;;;;;;;;;;9.30;97.50;;;;;;4954910;28;19918;-81
2024/02/23 15:11:36;;;;;;;;;;;9.20;97.60;;;;;;4963574;29;19924;-81
2024/02/23 15:14:04;;;;;;;;;;;9.10;97.70;;;;;;4971947;28;19958;-81
2024/02/23 15:16:34;;;;;;;;;;;9.20;97.80;;;;;;4957432;28;19929;-81
2024/02/23 15:19:06;;;;;;;;;;;9.20;97.70;;;;;;4974157;28;20388;-81
2024/02/23 15:21:42;;;;;;;;;;;9.20;97.60;;;;;;4958840;28;19989;-81
2024/02/23 15:24:25;;;;;;;;;;;9.20;97.80;;;;;;4958347;29;19921;-81
2024/02/23 15:26:59;;;;;;;;;;;9.20;98.00;;;;;;4971879;28;19914;-81
2024/02/23 15:29:34;;;;;;;;;;;9.20;97.90;;;;;;4938413;28;19928;-81
2024/02/23 15:32:00;;;;;;;;;;;9.00;98.10;;;;;;4955081;29;19937;-81
2024/02/23 15:34:47;;;;;;;;;;;9.10;98.40;;;;;;4976975;28;19914;-80
2024/02/23 15:37:23;;;;;;;;;;;9.20;98.00;;;;;;4975253;28;19918;-79
2024/02/23 15:39:59;;;;;;;;;;;9.20;98.20;;;;;;4940388;28;19926;-81
2024/02/23 15:42:35;;;;;;;;;;;;;;;;;;;;;
2024/02/23 15:45:12;;;;;;;;;;;9.10;98.30;;;;;;4958457;28;20287;-81